sensor_id;sensor_type;location;lat;lon;timestamp;temperature;humidity
6178;DHT22;3122;48.208;11.174;2023-09-18T00:04:28;16.90;8.10
6178;DHT22;3122;48.208;11.174;2023-09-18T00:09:29;16.90;8.10
6178;DHT22;3122;48.208;11.174;2023-09-18T00:14:29;16.80;8.20
6178;DHT22;3122;48.208;11.174;2023-09-18T00:19:30;16.60;8.10
6178;DHT22;3122;48.208;11.174;2023-09-18T00:24:32;16.60;9.00
6178;DHT22;3122;48.208;11.174;2023-09-18T00:29:34;16.60;8.70
6178;DHT22;3122;48.208;11.174;2023-09-18T00:34:34;16.50;9.20
6178;DHT22;3122;48.208;11.174;2023-09-18T00:39:35;16.40;10.40
6178;DHT22;3122;48.208;11.174;2023-09-18T00:44:35;16.30;11.10
6178;DHT22;3122;48.208;11.174;2023-09-18T00:49:38;16.40;12.00
6178;DHT22;3122;48.208;11.174;2023-09-18T00:54:40;16.30;11.90
6178;DHT22;3122;48.208;11.174;2023-09-18T00:59:42;16.30;12.60
6178;DHT22;3122;48.208;11.174;2023-09-18T01:04:42;16.30;12.60
6178;DHT22;3122;48.208;11.174;2023-09-18T01:09:44;16.20;13.10
6178;DHT22;3122;48.208;11.174;2023-09-18T01:15:00;16.30;12.60
6178;DHT22;3122;48.208;11.174;2023-09-18T01:20:04;16.20;13.60
6178;DHT22;3122;48.208;11.174;2023-09-18T01:25:06;16.20;14.90
6178;DHT22;3122;48.208;11.174;2023-09-18T01:30:07;16.20;13.50
6178;DHT22;3122;48.208;11.174;2023-09-18T01:35:08;16.10;12.50
6178;DHT22;3122;48.208;11.174;2023-09-18T01:40:10;16.10;14.10
6178;DHT22;3122;48.208;11.174;2023-09-18T01:45:11;16.00;14.90
6178;DHT22;3122;48.208;11.174;2023-09-18T01:50:12;16.10;15.20
6178;DHT22;3122;48.208;11.174;2023-09-18T01:55:13;16.00;15.00
6178;DHT22;3122;48.208;11.174;2023-09-18T02:00:14;15.90;14.30
6178;DHT22;3122;48.208;11.174;2023-09-18T02:05:15;15.90;15.20
6178;DHT22;3122;48.208;11.174;2023-09-18T02:10:16;15.90;15.80
6178;DHT22;3122;48.208;11.174;2023-09-18T02:15:17;15.90;16.90
6178;DHT22;3122;48.208;11.174;2023-09-18T02:20:17;16.00;17.60
6178;DHT22;3122;48.208;11.174;2023-09-18T02:25:18;15.90;17.90
6178;DHT22;3122;48.208;11.174;2023-09-18T02:30:19;15.90;19.00
6178;DHT22;3122;48.208;11.174;2023-09-18T02:35:19;15.90;19.70
6178;DHT22;3122;48.208;11.174;2023-09-18T02:40:20;15.80;20.00
6178;DHT22;3122;48.208;11.174;2023-09-18T02:45:20;15.80;19.20
6178;DHT22;3122;48.208;11.174;2023-09-18T02:50:21;15.80;19.70
6178;DHT22;3122;48.208;11.174;2023-09-18T02:55:22;15.70;19.00
6178;DHT22;3122;48.208;11.174;2023-09-18T03:00:22;15.60;20.20
6178;DHT22;3122;48.208;11.174;2023-09-18T03:05:23;15.60;20.70
6178;DHT22;3122;48.208;11.174;2023-09-18T03:10:23;15.60;19.90
6178;DHT22;3122;48.208;11.174;2023-09-18T03:15:24;15.60;19.40
6178;DHT22;3122;48.208;11.174;2023-09-18T03:20:25;15.60;19.50
6178;DHT22;3122;48.208;11.174;2023-09-18T03:25:26;15.50;19.50
6178;DHT22;3122;48.208;11.174;2023-09-18T03:30:27;15.50;20.20
6178;DHT22;3122;48.208;11.174;2023-09-18T03:35:30;15.40;19.60
6178;DHT22;3122;48.208;11.174;2023-09-18T03:40:31;15.30;19.60
6178;DHT22;3122;48.208;11.174;2023-09-18T03:45:32;15.20;19.40
6178;DHT22;3122;48.208;11.174;2023-09-18T03:50:33;15.20;20.40
6178;DHT22;3122;48.208;11.174;2023-09-18T03:55:33;15.20;20.30
6178;DHT22;3122;48.208;11.174;2023-09-18T04:00:34;15.20;20.70
6178;DHT22;3122;48.208;11.174;2023-09-18T04:05:34;15.20;22.30
6178;DHT22;3122;48.208;11.174;2023-09-18T04:10:35;15.20;21.60
6178;DHT22;3122;48.208;11.174;2023-09-18T04:15:36;15.20;21.60
6178;DHT22;3122;48.208;11.174;2023-09-18T04:20:38;15.10;21.50
6178;DHT22;3122;48.208;11.174;2023-09-18T04:25:38;15.00;22.60
6178;DHT22;3122;48.208;11.174;2023-09-18T04:30:39;15.00;21.80
6178;DHT22;3122;48.208;11.174;2023-09-18T04:35:40;14.90;22.60
6178;DHT22;3122;48.208;11.174;2023-09-18T04:40:41;14.90;22.90
6178;DHT22;3122;48.208;11.174;2023-09-18T04:45:41;14.80;22.90
6178;DHT22;3122;48.208;11.174;2023-09-18T04:50:46;14.80;23.30
6178;DHT22;3122;48.208;11.174;2023-09-18T04:55:46;14.80;24.10
6178;DHT22;3122;48.208;11.174;2023-09-18T05:00:59;14.80;24.30
6178;DHT22;3122;48.208;11.174;2023-09-18T05:06:00;14.80;25.20
6178;DHT22;3122;48.208;11.174;2023-09-18T05:11:01;14.90;25.40
6178;DHT22;3122;48.208;11.174;2023-09-18T05:16:02;14.70;26.40
6178;DHT22;3122;48.208;11.174;2023-09-18T05:21:04;14.70;28.40
6178;DHT22;3122;48.208;11.174;2023-09-18T05:26:05;14.70;29.60
6178;DHT22;3122;48.208;11.174;2023-09-18T05:31:05;14.70;30.00
6178;DHT22;3122;48.208;11.174;2023-09-18T05:36:06;14.80;29.10
6178;DHT22;3122;48.208;11.174;2023-09-18T05:41:07;14.90;29.20
6178;DHT22;3122;48.208;11.174;2023-09-18T05:46:07;15.00;29.60
6178;DHT22;3122;48.208;11.174;2023-09-18T05:51:08;15.10;30.90
6178;DHT22;3122;48.208;11.174;2023-09-18T05:56:08;15.20;31.80
6178;DHT22;3122;48.208;11.174;2023-09-18T06:01:10;15.30;32.60
6178;DHT22;3122;48.208;11.174;2023-09-18T06:06:10;15.40;33.10
6178;DHT22;3122;48.208;11.174;2023-09-18T06:11:11;15.50;34.20
6178;DHT22;3122;48.208;11.174;2023-09-18T06:16:12;15.60;36.50
6178;DHT22;3122;48.208;11.174;2023-09-18T06:21:12;15.80;36.30
6178;DHT22;3122;48.208;11.174;2023-09-18T06:26:13;15.90;34.20
6178;DHT22;3122;48.208;11.174;2023-09-18T06:31:15;15.90;35.10
6178;DHT22;3122;48.208;11.174;2023-09-18T06:36:16;15.90;35.70
6178;DHT22;3122;48.208;11.174;2023-09-18T06:41:19;15.90;37.50
6178;DHT22;3122;48.208;11.174;2023-09-18T06:46:20;16.10;36.80
6178;DHT22;3122;48.208;11.174;2023-09-18T06:51:20;16.20;33.40
6178;DHT22;3122;48.208;11.174;2023-09-18T06:56:21;16.40;29.50
6178;DHT22;3122;48.208;11.174;2023-09-18T07:01:22;16.30;28.70
6178;DHT22;3122;48.208;11.174;2023-09-18T07:06:24;16.30;29.40
6178;DHT22;3122;48.208;11.174;2023-09-18T07:11:25;16.30;30.20
6178;DHT22;3122;48.208;11.174;2023-09-18T07:16:25;16.50;29.60
6178;DHT22;3122;48.208;11.174;2023-09-18T07:21:26;16.60;30.60
6178;DHT22;3122;48.208;11.174;2023-09-18T07:26:27;16.80;31.10
6178;DHT22;3122;48.208;11.174;2023-09-18T07:31:27;17.00;31.10
6178;DHT22;3122;48.208;11.174;2023-09-18T07:36:28;17.20;30.00
6178;DHT22;3122;48.208;11.174;2023-09-18T07:41:28;17.40;28.00
6178;DHT22;3122;48.208;11.174;2023-09-18T07:46:29;17.50;27.70
6178;DHT22;3122;48.208;11.174;2023-09-18T07:51:30;17.80;26.30
6178;DHT22;3122;48.208;11.174;2023-09-18T07:56:30;18.10;21.30
6178;DHT22;3122;48.208;11.174;2023-09-18T08:01:34;18.20;20.80
6178;DHT22;3122;48.208;11.174;2023-09-18T08:06:35;18.20;19.70
6178;DHT22;3122;48.208;11.174;2023-09-18T08:11:35;18.40;18.30
6178;DHT22;3122;48.208;11.174;2023-09-18T08:16:41;18.50;18.30
6178;DHT22;3122;48.208;11.174;2023-09-18T08:21:42;18.70;17.00
6178;DHT22;3122;48.208;11.174;2023-09-18T08:26:43;18.80;18.10
6178;DHT22;3122;48.208;11.174;2023-09-18T08:31:44;19.10;15.00
6178;DHT22;3122;48.208;11.174;2023-09-18T08:36:44;19.20;14.20
6178;DHT22;3122;48.208;11.174;2023-09-18T08:41:47;19.20;14.20
6178;DHT22;3122;48.208;11.174;2023-09-18T08:46:50;19.40;13.60
6178;DHT22;3122;48.208;11.174;2023-09-18T08:51:54;19.70;12.20
6178;DHT22;3122;48.208;11.174;2023-09-18T08:56:55;19.80;10.80
6178;DHT22;3122;48.208;11.174;2023-09-18T09:01:56;20.00;7.30
6178;DHT22;3122;48.208;11.174;2023-09-18T09:06:56;20.10;7.30
6178;DHT22;3122;48.208;11.174;2023-09-18T09:11:59;19.80;7.90
6178;DHT22;3122;48.208;11.174;2023-09-18T09:17:00;19.90;7.50
6178;DHT22;3122;48.208;11.174;2023-09-18T09:22:01;19.80;6.70
6178;DHT22;3122;48.208;11.174;2023-09-18T09:27:01;19.90;6.30
6178;DHT22;3122;48.208;11.174;2023-09-18T09:32:13;20.10;6.40
6178;DHT22;3122;48.208;11.174;2023-09-18T09:37:14;20.20;6.50
6178;DHT22;3122;48.208;11.174;2023-09-18T09:42:16;20.40;7.00
6178;DHT22;3122;48.208;11.174;2023-09-18T09:47:19;20.60;5.80
6178;DHT22;3122;48.208;11.174;2023-09-18T09:52:19;20.90;5.30
6178;DHT22;3122;48.208;11.174;2023-09-18T09:57:23;21.00;5.70
6178;DHT22;3122;48.208;11.174;2023-09-18T10:02:24;21.30;2.80
6178;DHT22;3122;48.208;11.174;2023-09-18T10:07:25;21.50;1.00
6178;DHT22;3122;48.208;11.174;2023-09-18T10:12:26;21.60;1.00
6178;DHT22;3122;48.208;11.174;2023-09-18T10:17:27;21.60;1.00
6178;DHT22;3122;48.208;11.174;2023-09-18T10:22:31;21.60;1.00
6178;DHT22;3122;48.208;11.174;2023-09-18T10:27:39;21.80;1.00
6178;DHT22;3122;48.208;11.174;2023-09-18T10:32:41;22.20;1.00
6178;DHT22;3122;48.208;11.174;2023-09-18T10:37:43;22.30;1.00
6178;DHT22;3122;48.208;11.174;2023-09-18T10:42:45;22.00;1.00
6178;DHT22;3122;48.208;11.174;2023-09-18T10:47:48;22.10;1.00
6178;DHT22;3122;48.208;11.174;2023-09-18T10:52:49;22.10;1.00
6178;DHT22;3122;48.208;11.174;2023-09-18T10:57:57;22.00;1.00
6178;DHT22;3122;48.208;11.174;2023-09-18T11:03:14;21.90;1.00
6178;DHT22;3122;48.208;11.174;2023-09-18T11:13:29;21.40;1.00
6178;DHT22;3122;48.208;11.174;2023-09-18T11:18:33;21.30;1.00
6178;DHT22;3122;48.208;11.174;2023-09-18T11:23:35;21.30;1.00
6178;DHT22;3122;48.208;11.174;2023-09-18T11:28:38;20.80;1.00
6178;DHT22;3122;48.208;11.174;2023-09-18T11:33:40;20.20;1.00
6178;DHT22;3122;48.208;11.174;2023-09-18T11:38:59;19.80;1.00
6178;DHT22;3122;48.208;11.174;2023-09-18T11:49:24;19.40;2.60
6178;DHT22;3122;48.208;11.174;2023-09-18T11:54:28;19.00;5.00
6178;DHT22;3122;48.208;11.174;2023-09-18T11:59:42;18.70;8.70
6178;DHT22;3122;48.208;11.174;2023-09-18T12:04:43;18.50;10.30
6178;DHT22;3122;48.208;11.174;2023-09-18T12:09:43;18.30;10.00
6178;DHT22;3122;48.208;11.174;2023-09-18T12:14:44;18.20;8.80
6178;DHT22;3122;48.208;11.174;2023-09-18T12:19:54;18.10;9.00
6178;DHT22;3122;48.208;11.174;2023-09-18T12:25:12;17.90;10.40
6178;DHT22;3122;48.208;11.174;2023-09-18T12:30:15;17.80;11.80
6178;DHT22;3122;48.208;11.174;2023-09-18T12:35:20;17.50;12.20
6178;DHT22;3122;48.208;11.174;2023-09-18T12:45:23;17.30;16.80
6178;DHT22;3122;48.208;11.174;2023-09-18T12:50:25;17.30;17.90
6178;DHT22;3122;48.208;11.174;2023-09-18T12:55:26;17.20;18.30
6178;DHT22;3122;48.208;11.174;2023-09-18T13:00:27;17.20;16.80
6178;DHT22;3122;48.208;11.174;2023-09-18T13:05:28;17.20;17.10
6178;DHT22;3122;48.208;11.174;2023-09-18T13:10:46;17.30;17.60
6178;DHT22;3122;48.208;11.174;2023-09-18T13:15:48;17.30;18.90
6178;DHT22;3122;48.208;11.174;2023-09-18T13:20:50;17.30;17.90
6178;DHT22;3122;48.208;11.174;2023-09-18T13:25:50;17.40;18.40
6178;DHT22;3122;48.208;11.174;2023-09-18T13:30:51;17.50;18.10
6178;DHT22;3122;48.208;11.174;2023-09-18T13:35:52;17.60;17.20
6178;DHT22;3122;48.208;11.174;2023-09-18T13:40:53;17.70;18.00
6178;DHT22;3122;48.208;11.174;2023-09-18T13:45:57;17.80;14.70
6178;DHT22;3122;48.208;11.174;2023-09-18T13:50:59;17.90;15.40
6178;DHT22;3122;48.208;11.174;2023-09-18T13:56:00;18.10;13.60
6178;DHT22;3122;48.208;11.174;2023-09-18T14:01:00;18.30;11.90
6178;DHT22;3122;48.208;11.174;2023-09-18T14:06:02;18.60;12.70
6178;DHT22;3122;48.208;11.174;2023-09-18T14:11:05;18.70;10.40
6178;DHT22;3122;48.208;11.174;2023-09-18T14:16:06;18.90;7.50
6178;DHT22;3122;48.208;11.174;2023-09-18T14:21:08;18.90;6.80
6178;DHT22;3122;48.208;11.174;2023-09-18T14:26:09;18.90;3.50
6178;DHT22;3122;48.208;11.174;2023-09-18T14:31:10;19.00;4.80
6178;DHT22;3122;48.208;11.174;2023-09-18T14:36:10;19.00;4.60
6178;DHT22;3122;48.208;11.174;2023-09-18T14:41:11;19.00;4.50
6178;DHT22;3122;48.208;11.174;2023-09-18T14:46:11;19.00;5.40
6178;DHT22;3122;48.208;11.174;2023-09-18T14:51:12;19.00;4.20
6178;DHT22;3122;48.208;11.174;2023-09-18T14:56:13;19.00;3.50
6178;DHT22;3122;48.208;11.174;2023-09-18T15:01:13;18.90;3.50
6178;DHT22;3122;48.208;11.174;2023-09-18T15:06:14;18.80;5.20
6178;DHT22;3122;48.208;11.174;2023-09-18T15:11:14;18.90;4.80
6178;DHT22;3122;48.208;11.174;2023-09-18T15:16:17;18.90;5.20
6178;DHT22;3122;48.208;11.174;2023-09-18T15:21:18;18.90;4.30
6178;DHT22;3122;48.208;11.174;2023-09-18T15:26:18;18.90;2.80
6178;DHT22;3122;48.208;11.174;2023-09-18T15:31:19;18.90;1.00
6178;DHT22;3122;48.208;11.174;2023-09-18T15:36:20;18.90;1.00
6178;DHT22;3122;48.208;11.174;2023-09-18T15:41:23;18.80;2.80
6178;DHT22;3122;48.208;11.174;2023-09-18T15:46:23;18.80;1.30
6178;DHT22;3122;48.208;11.174;2023-09-18T15:51:24;19.00;1.40
6178;DHT22;3122;48.208;11.174;2023-09-18T15:56:24;19.10;1.00
6178;DHT22;3122;48.208;11.174;2023-09-18T16:01:26;19.10;1.00
6178;DHT22;3122;48.208;11.174;2023-09-18T16:06:26;19.10;1.00
6178;DHT22;3122;48.208;11.174;2023-09-18T16:11:27;19.20;1.00
6178;DHT22;3122;48.208;11.174;2023-09-18T16:16:28;19.30;1.00
6178;DHT22;3122;48.208;11.174;2023-09-18T16:21:28;19.60;1.00
6178;DHT22;3122;48.208;11.174;2023-09-18T16:26:30;19.70;1.00
6178;DHT22;3122;48.208;11.174;2023-09-18T16:31:31;19.70;1.00
6178;DHT22;3122;48.208;11.174;2023-09-18T16:36:33;19.50;1.00
6178;DHT22;3122;48.208;11.174;2023-09-18T16:41:33;19.20;1.00
6178;DHT22;3122;48.208;11.174;2023-09-18T16:46:34;19.20;1.00
6178;DHT22;3122;48.208;11.174;2023-09-18T16:51:36;19.00;1.00
6178;DHT22;3122;48.208;11.174;2023-09-18T16:56:37;18.90;1.00
6178;DHT22;3122;48.208;11.174;2023-09-18T17:01:37;18.70;1.00
6178;DHT22;3122;48.208;11.174;2023-09-18T17:06:38;18.50;1.00
6178;DHT22;3122;48.208;11.174;2023-09-18T17:11:40;18.40;1.00
6178;DHT22;3122;48.208;11.174;2023-09-18T17:16:41;18.30;1.00
6178;DHT22;3122;48.208;11.174;2023-09-18T17:21:41;18.20;1.00
6178;DHT22;3122;48.208;11.174;2023-09-18T17:26:42;18.20;1.00
6178;DHT22;3122;48.208;11.174;2023-09-18T17:31:42;18.10;1.00
6178;DHT22;3122;48.208;11.174;2023-09-18T17:36:43;18.00;1.00
6178;DHT22;3122;48.208;11.174;2023-09-18T17:41:43;17.90;1.00
6178;DHT22;3122;48.208;11.174;2023-09-18T17:46:45;17.90;1.00
6178;DHT22;3122;48.208;11.174;2023-09-18T17:51:46;17.90;1.00
6178;DHT22;3122;48.208;11.174;2023-09-18T17:56:46;17.70;1.00
6178;DHT22;3122;48.208;11.174;2023-09-18T18:01:47;17.70;1.00
6178;DHT22;3122;48.208;11.174;2023-09-18T18:06:48;17.70;1.00
6178;DHT22;3122;48.208;11.174;2023-09-18T18:11:49;17.50;1.00
6178;DHT22;3122;48.208;11.174;2023-09-18T18:16:50;17.60;1.00
6178;DHT22;3122;48.208;11.174;2023-09-18T18:21:50;17.60;1.00
6178;DHT22;3122;48.208;11.174;2023-09-18T18:26:51;17.50;1.00
6178;DHT22;3122;48.208;11.174;2023-09-18T18:31:53;17.50;1.00
6178;DHT22;3122;48.208;11.174;2023-09-18T18:36:54;17.40;1.00
6178;DHT22;3122;48.208;11.174;2023-09-18T18:41:55;17.40;1.00
6178;DHT22;3122;48.208;11.174;2023-09-18T18:46:56;17.40;1.00
6178;DHT22;3122;48.208;11.174;2023-09-18T18:51:58;17.30;1.00
6178;DHT22;3122;48.208;11.174;2023-09-18T18:56:58;17.30;1.00
6178;DHT22;3122;48.208;11.174;2023-09-18T19:01:59;17.30;1.00
6178;DHT22;3122;48.208;11.174;2023-09-18T19:07:02;17.40;1.00
6178;DHT22;3122;48.208;11.174;2023-09-18T19:12:04;17.50;1.00
6178;DHT22;3122;48.208;11.174;2023-09-18T19:17:06;17.30;1.00
6178;DHT22;3122;48.208;11.174;2023-09-18T19:22:06;17.10;1.00
6178;DHT22;3122;48.208;11.174;2023-09-18T19:27:07;17.00;1.00
6178;DHT22;3122;48.208;11.174;2023-09-18T19:32:08;17.10;1.00
6178;DHT22;3122;48.208;11.174;2023-09-18T19:37:10;17.20;1.00
6178;DHT22;3122;48.208;11.174;2023-09-18T19:42:11;17.10;1.00
6178;DHT22;3122;48.208;11.174;2023-09-18T19:47:11;17.10;1.00
6178;DHT22;3122;48.208;11.174;2023-09-18T19:52:12;17.10;1.00
6178;DHT22;3122;48.208;11.174;2023-09-18T19:57:14;17.10;1.00
6178;DHT22;3122;48.208;11.174;2023-09-18T20:02:17;17.00;1.00
6178;DHT22;3122;48.208;11.174;2023-09-18T20:07:18;17.20;1.00
6178;DHT22;3122;48.208;11.174;2023-09-18T20:12:18;17.10;1.00
6178;DHT22;3122;48.208;11.174;2023-09-18T20:17:19;17.00;1.00
6178;DHT22;3122;48.208;11.174;2023-09-18T20:22:21;16.90;1.00
6178;DHT22;3122;48.208;11.174;2023-09-18T20:27:22;16.80;1.00
6178;DHT22;3122;48.208;11.174;2023-09-18T20:32:22;16.70;1.00
6178;DHT22;3122;48.208;11.174;2023-09-18T20:37:23;16.70;1.00
6178;DHT22;3122;48.208;11.174;2023-09-18T20:42:24;16.60;1.00
6178;DHT22;3122;48.208;11.174;2023-09-18T20:47:25;16.60;1.00
6178;DHT22;3122;48.208;11.174;2023-09-18T20:52:26;16.50;1.00
6178;DHT22;3122;48.208;11.174;2023-09-18T20:57:26;16.50;1.00
6178;DHT22;3122;48.208;11.174;2023-09-18T21:02:27;16.40;1.00
6178;DHT22;3122;48.208;11.174;2023-09-18T21:07:28;16.40;1.00
6178;DHT22;3122;48.208;11.174;2023-09-18T21:12:29;16.40;1.00
6178;DHT22;3122;48.208;11.174;2023-09-18T21:17:29;16.60;1.00
6178;DHT22;3122;48.208;11.174;2023-09-18T21:22:31;16.60;1.00
6178;DHT22;3122;48.208;11.174;2023-09-18T21:27:33;16.30;1.00
6178;DHT22;3122;48.208;11.174;2023-09-18T21:32:34;16.40;1.00
6178;DHT22;3122;48.208;11.174;2023-09-18T21:37:34;16.30;1.00
6178;DHT22;3122;48.208;11.174;2023-09-18T21:42:35;16.40;1.00
6178;DHT22;3122;48.208;11.174;2023-09-18T21:47:36;16.30;1.00
6178;DHT22;3122;48.208;11.174;2023-09-18T21:52:38;16.30;1.00
6178;DHT22;3122;48.208;11.174;2023-09-18T21:57:38;16.10;1.00
6178;DHT22;3122;48.208;11.174;2023-09-18T22:02:39;16.00;2.10
6178;DHT22;3122;48.208;11.174;2023-09-18T22:07:40;16.00;1.90
6178;DHT22;3122;48.208;11.174;2023-09-18T22:12:40;16.00;3.30
6178;DHT22;3122;48.208;11.174;2023-09-18T22:17:41;15.90;3.10
6178;DHT22;3122;48.208;11.174;2023-09-18T22:22:46;15.90;3.20
6178;DHT22;3122;48.208;11.174;2023-09-18T22:27:46;15.80;4.20
6178;DHT22;3122;48.208;11.174;2023-09-18T22:32:48;15.80;4.20
6178;DHT22;3122;48.208;11.174;2023-09-18T22:37:53;15.70;3.50
6178;DHT22;3122;48.208;11.174;2023-09-18T22:59:12;15.80;1.00
6178;DHT22;3122;48.208;11.174;2023-09-18T23:04:13;15.80;1.00
6178;DHT22;3122;48.208;11.174;2023-09-18T23:09:14;15.70;1.00
6178;DHT22;3122;48.208;11.174;2023-09-18T23:14:17;15.70;1.00
6178;DHT22;3122;48.208;11.174;2023-09-18T23:19:19;15.90;1.00
6178;DHT22;3122;48.208;11.174;2023-09-18T23:24:21;15.90;1.00
6178;DHT22;3122;48.208;11.174;2023-09-18T23:29:22;15.90;1.00
6178;DHT22;3122;48.208;11.174;2023-09-18T23:34:23;15.90;1.00
6178;DHT22;3122;48.208;11.174;2023-09-18T23:39:24;16.10;1.00
6178;DHT22;3122;48.208;11.174;2023-09-18T23:44:25;16.10;1.00
6178;DHT22;3122;48.208;11.174;2023-09-18T23:49:26;16.20;1.00
6178;DHT22;3122;48.208;11.174;2023-09-18T23:54:28;16.10;1.00
6178;DHT22;3122;48.208;11.174;2023-09-18T23:59:30;16.10;1.00
